Rising Sun, Montana
Current Conditions -  °F | °C
As of 4:55 AM on Sunday 21 Dec 2014 (Local Time) from KGPI Reporting Station
Light Rain Light Rain  
Wind Chill: -1°   Ceiling: 1000
Heat Index:   Visibility: 10mi
Dew Point:   Wind: 6mph
Humidity: 100%   Direction: 250°WSW
Pressure: 29.43"   Gusts: NA
Location:  48.7064°N, 113.591°W
Report Text: KGPI 211155Z AUTO 25005KT 10SM -RA BKN010 OVC015 02/02 A2943 RMK AO2 SLP985 P0002 60024 70024 T00170017 10022 20000 55015 $
Loading
Personal Weather Stations






























Interactive Weather Map New forecast layout! Learn more

10-Day Weather Forecast

Advertisements
Track Severe Weather on mobile